WetterOnline ( https://www.wetteronline.de )

Wetter aktuell Oberhausen

Aktuelles Wetter: Essen (161m)

6-stündlich | Neueste Meldungen
Ortszeit Temperatur Wetter
Fr, 19.07. 20:00 25.9° C bedeckt
Fr, 19.07. 14:00 27.8° C wolkig
Fr, 19.07. 8:00 20.0° C bedeckt
Fr, 19.07. 2:00 20.6° C wolkenlos
Do, 18.07. 20:00 25.9° C fast wolkenlos
Do, 18.07. 14:00 25.8° C leicht bewölkt
Do, 18.07. 8:00 18.7° C leicht bewölkt
Do, 18.07. 2:00 17.3° C leicht bewölkt
Ortszeit Temperatur Wetter
Sa, 20.07. 0:00 21.9° C wolkig
Fr, 19.07. 23:30 22.9° C leicht bewölkt
Fr, 19.07. 23:20 22.9° C leicht bewölkt
Fr, 19.07. 23:10 22.9° C bedeckt
Fr, 19.07. 23:00 22.9° C bedeckt
Fr, 19.07. 22:50 22.9° C bedeckt
Fr, 19.07. 22:30 23.7° C bedeckt
Fr, 19.07. 22:00 24.0° C bewölkt
Fr, 19.07. 21:30 24.7° C bedeckt
Fr, 19.07. 21:00 25.2° C bedeckt
Ortszeit Relative Feuchte Sichtweite
Fr, 19.07. 20:00 49% 50 km
Fr, 19.07. 14:00 41% 40 km
Fr, 19.07. 8:00 69% 60 km
Fr, 19.07. 2:00 63% 50 km
Do, 18.07. 20:00 45% 55 km
Do, 18.07. 14:00 47% >70 km
Do, 18.07. 8:00 77% 30 km
Do, 18.07. 2:00 83% 30 km
Ortszeit Relative Feuchte Sichtweite
Sa, 20.07. 0:00 65% 50 km
Fr, 19.07. 23:30 59% 50 km
Fr, 19.07. 23:20 59% -
Fr, 19.07. 23:10 59% -
Fr, 19.07. 23:00 58% 50 km
Fr, 19.07. 22:50 58% -
Fr, 19.07. 22:30 56% 45 km
Fr, 19.07. 22:00 54% 50 km
Fr, 19.07. 21:30 52% 55 km
Fr, 19.07. 21:00 51% 55 km
Ortszeit Niederschlagsmenge Niederschlagsart
Fr, 19.07. 20:00 0.0 l/m2 in 12 Std. -
Fr, 19.07. 14:00 0.0 l/m2 in 6 Std. -
Fr, 19.07. 8:00 0.0 l/m2 in 12 Std. -
Fr, 19.07. 2:00 0.0 l/m2 in 6 Std. -
Do, 18.07. 20:00 0.0 l/m2 in 12 Std. -
Do, 18.07. 14:00 0.0 l/m2 in 6 Std. -
Do, 18.07. 8:00 0.0 l/m2 in 12 Std. -
Do, 18.07. 2:00 0.0 l/m2 in 6 Std. -
Ortszeit Niederschlagsmenge Niederschlagsart
Sa, 20.07. 0:00 keine Meldung -
Fr, 19.07. 23:30 0.0 l/m2 in 30 Min -
Fr, 19.07. 23:20 keine Meldung -
Fr, 19.07. 23:10 keine Meldung -
Fr, 19.07. 23:00 0.0 l/m2 in 1 Std. -
Fr, 19.07. 22:50 keine Meldung -
Fr, 19.07. 22:30 0.0 l/m2 in 30 Min -
Fr, 19.07. 22:00 0.0 l/m2 in 1 Std. -
Fr, 19.07. 21:30 0.0 l/m2 in 30 Min -
Fr, 19.07. 21:00 0.0 l/m2 in 1 Std. -
Ortszeit Stärke Spitze Richtung
km/h Bft. km/h Grad Sektor
Fr, 19.07. 20:00 6 1 19 60° NO
Fr, 19.07. 14:00 7 2 18 80° O
Fr, 19.07. 8:00 4 1 14 100° O
Fr, 19.07. 2:00 9 2 17 80° O
Do, 18.07. 20:00 4 1 18 80° O
Do, 18.07. 14:00 9 2 17 150° SO
Do, 18.07. 8:00 4 1 11 150° SO
Do, 18.07. 2:00 4 1 11 100° O
Ortszeit Stärke Spitze Richtung
km/h Bft. km/h Grad Sektor
Sa, 20.07. 0:00 6 1 9 90° O
Fr, 19.07. 23:30 7 2 9 80° O
Fr, 19.07. 23:20 7 2 - 80° O
Fr, 19.07. 23:10 7 2 - 80° O
Fr, 19.07. 23:00 7 2 11 90° O
Fr, 19.07. 22:50 7 2 - 90° O
Fr, 19.07. 22:30 6 1 11 60° NO
Fr, 19.07. 22:00 7 2 13 50° NO
Fr, 19.07. 21:30 7 2 14 50° NO
Fr, 19.07. 21:00 7 2 14 50° NO
Ortszeit Untergrenze Bedeckung Gattung
total tief tief mittel hoch
Fr, 19.07. 20:00 5100 m 8/8 8/8 - - -
Fr, 19.07. 14:00 6300 m 6/8 3/8 - - -
Fr, 19.07. 8:00 4500 m 8/8 8/8 - - -
Fr, 19.07. 2:00 - 0/8 0/8 - - -
Do, 18.07. 20:00 9000 m 1/8 0/8 - - -
Do, 18.07. 14:00 1380 m 2/8 2/8 - - -
Do, 18.07. 8:00 7800 m 7/8 0/8 - - -
Do, 18.07. 2:00 9000 m 3/8 0/8 - - -
Ortszeit Bedeckungsgrad in Achtel und Wolkenuntergrenze
Sa, 20.07. 0:00 4(7500m) 7(8700m) 8(10500m)
Fr, 19.07. 23:30 5(7200m) 5(8400m) 6(10500m)
Fr, 19.07. 23:20 5(7200m) 5(8400m) 6(10500m)
Fr, 19.07. 23:10 8
Fr, 19.07. 23:00 3(5700m) 8(6900m)
Fr, 19.07. 22:50 3(5700m) 8(6900m)
Fr, 19.07. 22:30 8(5400m) 8(6900m)
Fr, 19.07. 22:00 6(5700m) 8(7200m) 8(7800m)
Fr, 19.07. 21:30 8(5400m) 8(6600m) 8(8100m)
Fr, 19.07. 21:00 8(5400m) 8(6600m)
Ortszeit Luftdruck NN (hPa) Tendenz (hPa in 3 Std.)
Fr, 19.07. 20:00 1016 - 1,4
Fr, 19.07. 14:00 1018 - 0,9
Fr, 19.07. 8:00 1020 - 0,1
Fr, 19.07. 2:00 1021 - 0,3
Do, 18.07. 20:00 1021 - 0,7
Do, 18.07. 14:00 1022 - 0,9
Do, 18.07. 8:00 1023 + 0,8
Do, 18.07. 2:00 1023 + 0,1
Ortszeit Luftdruck NN (hPa) Tendenz (hPa in 3 Std.)
Sa, 20.07. 0:00 1016 - 0,2
Fr, 19.07. 23:30 1016 - 0,2
Fr, 19.07. 23:20 1016 keine Meldung
Fr, 19.07. 23:10 1016 keine Meldung
Fr, 19.07. 23:00 1016 - 0,2
Fr, 19.07. 22:50 1016 keine Meldung
Fr, 19.07. 22:30 1016 - 0,5
Fr, 19.07. 22:00 1016 - 0,9
Fr, 19.07. 21:30 1016 - 1,1
Fr, 19.07. 21:00 1016 - 1,2
Ortszeit Schneehöhe (cm)
Fr, 19.07. 20:00 0
Fr, 19.07. 14:00 0
Fr, 19.07. 8:00 0
Fr, 19.07. 2:00 0
Do, 18.07. 20:00 0
Do, 18.07. 14:00 0
Do, 18.07. 8:00 0
Do, 18.07. 2:00 0
Ortszeit Schneehöhe (cm)
Sa, 20.07. 0:00 -
Fr, 19.07. 23:30 0
Fr, 19.07. 23:20 0
Fr, 19.07. 23:10 -
Fr, 19.07. 23:00 0
Fr, 19.07. 22:50 0
Fr, 19.07. 22:30 0
Fr, 19.07. 22:00 0
Fr, 19.07. 21:30 0
Fr, 19.07. 21:00 0
Link zu dieser Seite / Seite empfehlen

Das Wetter in ...